Terminal Aerodrome Forecast
Issued by NWS

Home | Current Version | Previous Version | Text Only | Print | Product List | Glossary On
Versions: 1 2 3 4 5 6 7 8 9 10 11 12 13 14 15 16 17 18 19 20 21 22 23 24 25 26 27 28 29 30 31 32 33 34 35 36 37 38 39 40 41 42 43 44 45 46 47 48
000
FTUS43 KPAH 111323 AAA
TAFOWB
TAF AMD
KOWB 111323Z 1113/1212 03007KT P6SM BKN012 OVC040
      TEMPO 1113/1115 SCT012 OVC040
     FM111500 02005KT P6SM FEW050 SCT200
     FM120000 03003KT P6SM OVC100
     FM120900 06003KT P6SM -SN OVC040=

USA.gov is the U.S. government's official web portal to all federal, state and local government web resources and services.